JST725 YSSY-YMHB
Flight info
| Callsign | JST725 |
|---|---|
| Flight time | 1h 29m |
| Altitude | 34000 |
| Route | WOL H20 MOTRA/N0364F200 W407 TASUM |
| Aircraft | A320/M-SDE3FGHIRWY/LB1 |
Departure
| Time | 2026-05-05 22:32 |
|---|---|
| Airport | Sydney Kingsford Smith International Airport (YSSY) |
Arrival
| Time | 2026-05-06 00:01 |
|---|---|
| Airport | Hobart International Airport (YMHB) |
| Time | Latitude | Longitude | Altitude | Speed | Heading |
|---|---|---|---|---|---|
| 2026-05-05 22:14 | -33.93562 | 151.17756 | 30 ft | 0 kts | 281° |
| 2026-05-05 22:21 | -33.93564 | 151.17769 | 28 ft | 4 kts | 277° |
| 2026-05-05 22:22 | -33.93565 | 151.17801 | 28 ft | 4 kts | 259° |
| 2026-05-05 22:22 | -33.93555 | 151.17828 | 30 ft | 4 kts | 210° |
| 2026-05-05 22:22 | -33.93550 | 151.17832 | 30 ft | 4 kts | 190° |
| 2026-05-05 22:22 | -33.93577 | 151.17826 | 30 ft | 4 kts | 190° |
| 2026-05-05 22:23 | -33.93586 | 151.17824 | 30 ft | 0 kts | 190° |
| 2026-05-05 22:25 | -33.93592 | 151.17822 | 30 ft | 4 kts | 190° |
| 2026-05-05 22:25 | -33.93628 | 151.17815 | 30 ft | 6 kts | 190° |
| 2026-05-05 22:26 | -33.93688 | 151.17799 | 30 ft | 12 kts | 194° |
| 2026-05-05 22:26 | -33.93789 | 151.17768 | 30 ft | 16 kts | 194° |
| 2026-05-05 22:26 | -33.93863 | 151.17678 | 29 ft | 18 kts | 256° |
| 2026-05-05 22:26 | -33.93956 | 151.17626 | 29 ft | 21 kts | 167° |
| 2026-05-05 22:27 | -33.94142 | 151.17677 | 29 ft | 33 kts | 166° |
| 2026-05-05 22:27 | -33.94370 | 151.17746 | 30 ft | 34 kts | 165° |
| 2026-05-05 22:27 | -33.94602 | 151.17814 | 29 ft | 32 kts | 168° |
| 2026-05-05 22:27 | -33.94823 | 151.17871 | 30 ft | 33 kts | 167° |
| 2026-05-05 22:28 | -33.95052 | 151.17931 | 30 ft | 34 kts | 168° |
| 2026-05-05 22:28 | -33.95200 | 151.17925 | 30 ft | 17 kts | 234° |
| 2026-05-05 22:28 | -33.95237 | 151.17754 | 29 ft | 27 kts | 258° |
| 2026-05-05 22:28 | -33.95295 | 151.17593 | 29 ft | 18 kts | 211° |
| 2026-05-05 22:29 | -33.95419 | 151.17600 | 29 ft | 20 kts | 168° |
| 2026-05-05 22:29 | -33.95579 | 151.17641 | 30 ft | 26 kts | 168° |
| 2026-05-05 22:29 | -33.95762 | 151.17689 | 30 ft | 28 kts | 168° |
| 2026-05-05 22:29 | -33.95961 | 151.17740 | 30 ft | 30 kts | 168° |
| 2026-05-05 22:30 | -33.96171 | 151.17795 | 30 ft | 32 kts | 168° |
| 2026-05-05 22:30 | -33.96367 | 151.17846 | 30 ft | 19 kts | 167° |
| 2026-05-05 22:30 | -33.96438 | 151.17922 | 30 ft | 15 kts | 92° |
| 2026-05-05 22:30 | -33.96411 | 151.18038 | 30 ft | 12 kts | 57° |
| 2026-05-05 22:31 | -33.96334 | 151.18040 | 29 ft | 20 kts | 348° |
| 2026-05-05 22:31 | -33.95973 | 151.17946 | 28 ft | 85 kts | 348° |
| 2026-05-05 22:31 | -33.95217 | 151.17749 | 29 ft | 134 kts | 347° |
| 2026-05-05 22:31 | -33.94171 | 151.17479 | 46 ft | 171 kts | 348° |
| 2026-05-05 22:32 | -33.93018 | 151.17187 | 682 ft | 168 kts | 346° |
| 2026-05-05 22:32 | -33.91897 | 151.16787 | 1301 ft | 170 kts | 334° |
| 2026-05-05 22:32 | -33.90875 | 151.16052 | 1832 ft | 177 kts | 321° |
| 2026-05-05 22:32 | -33.89967 | 151.14940 | 2111 ft | 197 kts | 304° |
| 2026-05-05 22:33 | -33.89272 | 151.13419 | 2342 ft | 218 kts | 295° |
| 2026-05-05 22:33 | -33.88584 | 151.11702 | 2612 ft | 239 kts | 296° |
| 2026-05-05 22:33 | -33.87822 | 151.09811 | 2978 ft | 261 kts | 297° |
| 2026-05-05 22:33 | -33.87013 | 151.07808 | 3754 ft | 268 kts | 297° |
| 2026-05-05 22:34 | -33.86192 | 151.05780 | 4639 ft | 271 kts | 297° |
| 2026-05-05 22:34 | -33.85357 | 151.03727 | 5513 ft | 274 kts | 298° |
| 2026-05-05 22:34 | -33.84526 | 151.01657 | 6409 ft | 276 kts | 295° |
| 2026-05-05 22:34 | -33.84037 | 150.99410 | 7233 ft | 281 kts | 276° |
| 2026-05-05 22:35 | -33.84223 | 150.97068 | 8041 ft | 285 kts | 252° |
| 2026-05-05 22:35 | -33.85177 | 150.94975 | 8831 ft | 289 kts | 229° |
| 2026-05-05 22:35 | -33.86759 | 150.93486 | 9648 ft | 292 kts | 206° |
| 2026-05-05 22:35 | -33.88725 | 150.92865 | 10418 ft | 296 kts | 183° |
| 2026-05-05 22:36 | -33.90765 | 150.93242 | 11102 ft | 301 kts | 160° |
| 2026-05-05 22:36 | -33.92765 | 150.94284 | 11304 ft | 325 kts | 156° |
| 2026-05-05 22:36 | -33.94854 | 150.95452 | 11494 ft | 344 kts | 155° |
| 2026-05-05 22:36 | -33.97123 | 150.96470 | 11993 ft | 351 kts | 167° |
| 2026-05-05 22:37 | -33.99549 | 150.96868 | 12605 ft | 354 kts | 181° |
| 2026-05-05 22:37 | -34.01997 | 150.96589 | 13231 ft | 355 kts | 194° |
| 2026-05-05 22:37 | -34.04393 | 150.95834 | 13861 ft | 358 kts | 197° |
| 2026-05-05 22:37 | -34.06811 | 150.95039 | 14455 ft | 361 kts | 197° |
| 2026-05-05 22:38 | -34.09244 | 150.94237 | 15028 ft | 363 kts | 197° |
| 2026-05-05 22:38 | -34.11696 | 150.93435 | 15596 ft | 366 kts | 197° |
| 2026-05-05 22:38 | -34.14164 | 150.92633 | 16161 ft | 368 kts | 197° |
| 2026-05-05 22:38 | -34.16650 | 150.91833 | 16718 ft | 371 kts | 197° |
| 2026-05-05 22:39 | -34.19153 | 150.91031 | 17279 ft | 374 kts | 197° |
| 2026-05-05 22:39 | -34.21671 | 150.90219 | 17834 ft | 376 kts | 197° |
| 2026-05-05 22:39 | -34.24214 | 150.89391 | 18389 ft | 379 kts | 197° |
| 2026-05-05 22:39 | -34.26734 | 150.88570 | 18889 ft | 382 kts | 197° |
| 2026-05-05 22:40 | -34.29316 | 150.87732 | 19389 ft | 384 kts | 197° |
| 2026-05-05 22:40 | -34.31907 | 150.86890 | 19889 ft | 387 kts | 197° |
| 2026-05-05 22:40 | -34.34522 | 150.86039 | 20382 ft | 390 kts | 197° |
| 2026-05-05 22:40 | -34.37153 | 150.85184 | 20860 ft | 392 kts | 197° |
| 2026-05-05 22:41 | -34.39799 | 150.84322 | 21312 ft | 395 kts | 197° |
| 2026-05-05 22:41 | -34.42462 | 150.83450 | 21772 ft | 398 kts | 197° |
| 2026-05-05 22:41 | -34.45140 | 150.82575 | 22226 ft | 400 kts | 197° |
| 2026-05-05 22:41 | -34.47838 | 150.81694 | 22664 ft | 403 kts | 198° |
| 2026-05-05 22:42 | -34.50555 | 150.80807 | 23120 ft | 405 kts | 197° |
| 2026-05-05 22:42 | -34.53282 | 150.79922 | 23568 ft | 407 kts | 197° |
| 2026-05-05 22:42 | -34.55983 | 150.78869 | 23952 ft | 408 kts | 205° |
| 2026-05-05 22:42 | -34.58513 | 150.77321 | 24310 ft | 408 kts | 211° |
| 2026-05-05 22:43 | -34.60979 | 150.75680 | 24672 ft | 410 kts | 211° |
| 2026-05-05 22:43 | -34.63488 | 150.74014 | 25039 ft | 412 kts | 211° |
| 2026-05-05 22:43 | -34.66012 | 150.72339 | 25395 ft | 414 kts | 211° |
| 2026-05-05 22:43 | -34.68552 | 150.70655 | 25755 ft | 416 kts | 211° |
| 2026-05-05 22:44 | -34.71097 | 150.68969 | 26112 ft | 418 kts | 211° |
| 2026-05-05 22:44 | -34.73660 | 150.67270 | 26463 ft | 421 kts | 211° |
| 2026-05-05 22:44 | -34.76239 | 150.65559 | 26800 ft | 423 kts | 211° |
| 2026-05-05 22:44 | -34.78826 | 150.63839 | 27134 ft | 425 kts | 211° |
| 2026-05-05 22:45 | -34.81424 | 150.62111 | 27481 ft | 427 kts | 211° |
| 2026-05-05 22:45 | -34.84038 | 150.60373 | 27828 ft | 429 kts | 211° |
| 2026-05-05 22:45 | -34.86658 | 150.58628 | 28178 ft | 431 kts | 211° |
| 2026-05-05 22:45 | -34.89298 | 150.56868 | 28525 ft | 433 kts | 211° |
| 2026-05-05 22:46 | -34.91951 | 150.55099 | 28851 ft | 435 kts | 211° |
| 2026-05-05 22:46 | -34.94664 | 150.53417 | 29198 ft | 439 kts | 205° |
| 2026-05-05 22:46 | -34.97537 | 150.52246 | 29518 ft | 444 kts | 196° |
| 2026-05-05 22:46 | -35.00536 | 150.51362 | 29958 ft | 443 kts | 196° |
| 2026-05-05 22:47 | -35.03534 | 150.50478 | 30416 ft | 442 kts | 196° |
| 2026-05-05 22:47 | -35.06520 | 150.49598 | 30808 ft | 441 kts | 196° |
| 2026-05-05 22:47 | -35.09502 | 150.48715 | 31203 ft | 440 kts | 196° |
| 2026-05-05 22:47 | -35.12478 | 150.47832 | 31589 ft | 440 kts | 196° |
| 2026-05-05 22:48 | -35.15447 | 150.46950 | 31979 ft | 439 kts | 196° |
| 2026-05-05 22:48 | -35.18415 | 150.46067 | 32365 ft | 439 kts | 197° |
| 2026-05-05 22:48 | -35.21381 | 150.45180 | 32758 ft | 438 kts | 197° |
| 2026-05-05 22:48 | -35.24336 | 150.44294 | 33164 ft | 437 kts | 197° |
| 2026-05-05 22:49 | -35.27288 | 150.43409 | 33557 ft | 436 kts | 197° |
| 2026-05-05 22:49 | -35.30235 | 150.42529 | 33965 ft | 436 kts | 197° |
| 2026-05-05 22:49 | -35.33180 | 150.41648 | 34188 ft | 436 kts | 197° |
| 2026-05-05 22:50 | -35.39134 | 150.39861 | 34227 ft | 442 kts | 197° |
| 2026-05-05 22:50 | -35.45117 | 150.38064 | 34223 ft | 443 kts | 197° |
| 2026-05-05 22:51 | -35.51107 | 150.36267 | 34225 ft | 443 kts | 197° |
| 2026-05-05 22:51 | -35.57090 | 150.34475 | 34223 ft | 443 kts | 197° |
| 2026-05-05 22:52 | -35.63075 | 150.32676 | 34218 ft | 443 kts | 197° |
| 2026-05-05 22:52 | -35.69063 | 150.30864 | 34234 ft | 443 kts | 197° |
| 2026-05-05 22:53 | -35.75009 | 150.29052 | 34234 ft | 443 kts | 197° |
| 2026-05-05 22:53 | -35.81007 | 150.27239 | 34235 ft | 443 kts | 197° |
| 2026-05-05 22:54 | -35.87001 | 150.25433 | 34236 ft | 443 kts | 197° |
| 2026-05-05 22:54 | -35.92989 | 150.23614 | 34248 ft | 443 kts | 197° |
| 2026-05-05 22:55 | -35.98976 | 150.21788 | 34245 ft | 443 kts | 197° |
| 2026-05-05 22:55 | -36.04959 | 150.19962 | 34241 ft | 443 kts | 197° |
| 2026-05-05 22:56 | -36.10947 | 150.18143 | 34249 ft | 443 kts | 197° |
| 2026-05-05 22:56 | -36.16892 | 150.16323 | 34238 ft | 442 kts | 197° |
| 2026-05-05 22:57 | -36.22862 | 150.14496 | 34235 ft | 442 kts | 197° |
| 2026-05-05 22:57 | -36.28831 | 150.12670 | 34249 ft | 441 kts | 197° |
| 2026-05-05 22:58 | -36.34797 | 150.10838 | 34239 ft | 442 kts | 197° |
| 2026-05-05 22:58 | -36.40763 | 150.09000 | 34235 ft | 442 kts | 197° |
| 2026-05-05 22:59 | -36.45731 | 150.07472 | 34234 ft | 442 kts | 197° |
| 2026-05-05 22:59 | -36.51692 | 150.05639 | 34245 ft | 442 kts | 197° |
| 2026-05-05 23:00 | -36.60655 | 150.02861 | 34238 ft | 442 kts | 197° |
| 2026-05-05 23:00 | -36.66633 | 150.01019 | 34236 ft | 442 kts | 197° |
| 2026-05-05 23:01 | -36.72603 | 149.99169 | 34236 ft | 442 kts | 197° |
| 2026-05-05 23:01 | -36.78576 | 149.97309 | 34236 ft | 442 kts | 197° |
| 2026-05-05 23:02 | -36.84510 | 149.95463 | 34235 ft | 442 kts | 197° |
| 2026-05-05 23:02 | -36.90486 | 149.93605 | 34242 ft | 442 kts | 197° |
| 2026-05-05 23:03 | -36.96465 | 149.91741 | 34238 ft | 443 kts | 197° |
| 2026-05-05 23:03 | -37.02442 | 149.89869 | 34236 ft | 443 kts | 197° |
| 2026-05-05 23:04 | -37.08419 | 149.87991 | 34243 ft | 443 kts | 197° |
| 2026-05-05 23:04 | -37.14407 | 149.86116 | 34240 ft | 443 kts | 197° |
| 2026-05-05 23:05 | -37.20397 | 149.84243 | 34237 ft | 443 kts | 197° |
| 2026-05-05 23:05 | -37.26375 | 149.82351 | 34253 ft | 443 kts | 197° |
| 2026-05-05 23:06 | -37.32348 | 149.80464 | 34242 ft | 443 kts | 197° |
| 2026-05-05 23:06 | -37.38334 | 149.78580 | 34235 ft | 443 kts | 197° |
| 2026-05-05 23:07 | -37.44318 | 149.76685 | 34230 ft | 444 kts | 197° |
| 2026-05-05 23:07 | -37.50266 | 149.74802 | 34230 ft | 444 kts | 197° |
| 2026-05-05 23:08 | -37.56263 | 149.72899 | 34225 ft | 444 kts | 197° |
| 2026-05-05 23:08 | -37.62257 | 149.70962 | 34225 ft | 444 kts | 198° |
| 2026-05-05 23:09 | -37.68195 | 149.68801 | 34227 ft | 444 kts | 199° |
| 2026-05-05 23:09 | -37.74115 | 149.66560 | 34219 ft | 445 kts | 199° |
| 2026-05-05 23:10 | -37.80057 | 149.64364 | 34215 ft | 445 kts | 199° |
| 2026-05-05 23:10 | -37.86021 | 149.62191 | 34225 ft | 446 kts | 199° |
| 2026-05-05 23:11 | -37.91986 | 149.60019 | 34211 ft | 446 kts | 199° |
| 2026-05-05 23:11 | -37.97948 | 149.57830 | 34216 ft | 446 kts | 199° |
| 2026-05-05 23:12 | -38.03908 | 149.55645 | 34224 ft | 446 kts | 199° |
| 2026-05-05 23:12 | -38.09831 | 149.53465 | 34213 ft | 446 kts | 199° |
| 2026-05-05 23:13 | -38.15791 | 149.51255 | 34207 ft | 446 kts | 199° |
| 2026-05-05 23:13 | -38.21754 | 149.49048 | 34204 ft | 446 kts | 199° |
| 2026-05-05 23:14 | -38.27721 | 149.46839 | 34206 ft | 447 kts | 199° |
| 2026-05-05 23:14 | -38.33692 | 149.44628 | 34195 ft | 447 kts | 199° |
| 2026-05-05 23:15 | -38.39665 | 149.42412 | 34213 ft | 447 kts | 200° |
| 2026-05-05 23:15 | -38.45637 | 149.40187 | 34199 ft | 447 kts | 200° |
| 2026-05-05 23:16 | -38.51617 | 149.37957 | 34198 ft | 448 kts | 200° |
| 2026-05-05 23:16 | -38.57599 | 149.35727 | 34192 ft | 448 kts | 200° |
| 2026-05-05 23:17 | -38.63586 | 149.33491 | 34196 ft | 448 kts | 200° |
| 2026-05-05 23:17 | -38.69574 | 149.31250 | 34189 ft | 448 kts | 200° |
| 2026-05-05 23:18 | -38.75552 | 149.29000 | 34198 ft | 448 kts | 200° |
| 2026-05-05 23:18 | -38.81546 | 149.26742 | 34191 ft | 449 kts | 200° |
| 2026-05-05 23:19 | -38.87505 | 149.24500 | 34183 ft | 449 kts | 200° |
| 2026-05-05 23:19 | -38.93496 | 149.22246 | 34193 ft | 449 kts | 200° |
| 2026-05-05 23:20 | -38.99500 | 149.19977 | 34179 ft | 449 kts | 200° |
| 2026-05-05 23:20 | -39.05500 | 149.17700 | 34177 ft | 450 kts | 200° |
| 2026-05-05 23:21 | -39.11500 | 149.15421 | 34187 ft | 450 kts | 200° |
| 2026-05-05 23:21 | -39.17510 | 149.13141 | 34176 ft | 450 kts | 200° |
| 2026-05-05 23:22 | -39.23524 | 149.10848 | 34168 ft | 451 kts | 200° |
| 2026-05-05 23:22 | -39.29540 | 149.08560 | 34172 ft | 451 kts | 200° |
| 2026-05-05 23:23 | -39.35570 | 149.06258 | 34163 ft | 451 kts | 200° |
| 2026-05-05 23:23 | -39.41590 | 149.03947 | 34164 ft | 451 kts | 200° |
| 2026-05-05 23:24 | -39.47617 | 149.01639 | 34178 ft | 452 kts | 201° |
| 2026-05-05 23:24 | -39.53643 | 148.99327 | 34164 ft | 452 kts | 201° |
| 2026-05-05 23:25 | -39.59660 | 148.97006 | 34152 ft | 452 kts | 201° |
| 2026-05-05 23:25 | -39.65691 | 148.94678 | 34159 ft | 452 kts | 201° |
| 2026-05-05 23:26 | -39.71684 | 148.92363 | 34145 ft | 452 kts | 201° |
| 2026-05-05 23:26 | -39.77721 | 148.90032 | 34146 ft | 452 kts | 201° |
| 2026-05-05 23:27 | -39.83757 | 148.87685 | 34148 ft | 453 kts | 201° |
| 2026-05-05 23:27 | -39.89794 | 148.85343 | 34139 ft | 453 kts | 201° |
| 2026-05-05 23:28 | -39.95839 | 148.82994 | 34135 ft | 453 kts | 201° |
| 2026-05-05 23:28 | -40.01879 | 148.80631 | 34140 ft | 453 kts | 201° |
| 2026-05-05 23:29 | -40.07924 | 148.78266 | 34135 ft | 454 kts | 201° |
| 2026-05-05 23:29 | -40.13974 | 148.75904 | 34125 ft | 454 kts | 201° |
| 2026-05-05 23:30 | -40.20030 | 148.73535 | 34126 ft | 454 kts | 201° |
| 2026-05-05 23:30 | -40.26085 | 148.71156 | 34116 ft | 454 kts | 201° |
| 2026-05-05 23:31 | -40.32144 | 148.68777 | 34114 ft | 455 kts | 201° |
| 2026-05-05 23:31 | -40.38166 | 148.66407 | 34109 ft | 455 kts | 201° |
| 2026-05-05 23:32 | -40.44220 | 148.64008 | 34110 ft | 454 kts | 202° |
| 2026-05-05 23:32 | -40.50276 | 148.61603 | 34118 ft | 454 kts | 202° |
| 2026-05-05 23:33 | -40.56330 | 148.59203 | 34099 ft | 455 kts | 202° |
| 2026-05-05 23:33 | -40.62389 | 148.56806 | 34095 ft | 455 kts | 202° |
| 2026-05-05 23:34 | -40.68449 | 148.54394 | 34109 ft | 455 kts | 202° |
| 2026-05-05 23:34 | -40.74515 | 148.51954 | 34092 ft | 455 kts | 202° |
| 2026-05-05 23:35 | -40.80593 | 148.49531 | 34081 ft | 456 kts | 202° |
| 2026-05-05 23:35 | -40.86671 | 148.47101 | 34089 ft | 457 kts | 202° |
| 2026-05-05 23:36 | -40.92723 | 148.44675 | 34073 ft | 457 kts | 202° |
| 2026-05-05 23:36 | -40.98820 | 148.42219 | 34065 ft | 458 kts | 202° |
| 2026-05-05 23:37 | -41.04924 | 148.39755 | 34074 ft | 458 kts | 203° |
| 2026-05-05 23:37 | -41.10990 | 148.37308 | 34060 ft | 458 kts | 203° |
| 2026-05-05 23:38 | -41.17096 | 148.34836 | 34052 ft | 459 kts | 203° |
| 2026-05-05 23:38 | -41.23203 | 148.32367 | 34059 ft | 459 kts | 203° |
| 2026-05-05 23:39 | -41.29310 | 148.29895 | 34040 ft | 458 kts | 203° |
| 2026-05-05 23:39 | -41.32371 | 148.28651 | 33142 ft | 464 kts | 203° |
| 2026-05-05 23:39 | -41.35476 | 148.27336 | 32191 ft | 470 kts | 205° |
| 2026-05-05 23:40 | -41.38565 | 148.25904 | 31435 ft | 470 kts | 206° |
| 2026-05-05 23:40 | -41.41616 | 148.24400 | 30914 ft | 465 kts | 207° |
| 2026-05-05 23:40 | -41.44622 | 148.22876 | 30385 ft | 461 kts | 207° |
| 2026-05-05 23:40 | -41.47606 | 148.21356 | 29820 ft | 458 kts | 207° |
| 2026-05-05 23:41 | -41.50574 | 148.19856 | 29289 ft | 453 kts | 207° |
| 2026-05-05 23:41 | -41.53517 | 148.18397 | 28777 ft | 449 kts | 207° |
| 2026-05-05 23:41 | -41.56432 | 148.16970 | 28272 ft | 444 kts | 207° |
| 2026-05-05 23:41 | -41.59317 | 148.15564 | 27784 ft | 439 kts | 207° |
| 2026-05-05 23:42 | -41.62172 | 148.14172 | 27303 ft | 434 kts | 207° |
| 2026-05-05 23:42 | -41.64962 | 148.12806 | 26847 ft | 430 kts | 207° |
| 2026-05-05 23:42 | -41.67754 | 148.11430 | 26389 ft | 425 kts | 207° |
| 2026-05-05 23:42 | -41.70522 | 148.10061 | 25959 ft | 422 kts | 207° |
| 2026-05-05 23:43 | -41.73268 | 148.08707 | 25494 ft | 419 kts | 207° |
| 2026-05-05 23:43 | -41.75998 | 148.07363 | 25072 ft | 416 kts | 207° |
| 2026-05-05 23:43 | -41.78711 | 148.06025 | 24639 ft | 414 kts | 207° |
| 2026-05-05 23:43 | -41.81412 | 148.04690 | 24202 ft | 412 kts | 207° |
| 2026-05-05 23:44 | -41.84096 | 148.03361 | 23762 ft | 411 kts | 207° |
| 2026-05-05 23:44 | -41.86770 | 148.02036 | 23300 ft | 409 kts | 207° |
| 2026-05-05 23:44 | -41.89437 | 148.00711 | 22817 ft | 406 kts | 208° |
| 2026-05-05 23:44 | -41.92079 | 147.99398 | 22368 ft | 403 kts | 207° |
| 2026-05-05 23:45 | -41.94662 | 147.98115 | 21920 ft | 400 kts | 207° |
| 2026-05-05 23:45 | -41.97264 | 147.96817 | 21456 ft | 398 kts | 208° |
| 2026-05-05 23:45 | -41.99847 | 147.95528 | 20996 ft | 395 kts | 208° |
| 2026-05-05 23:45 | -42.02417 | 147.94250 | 20527 ft | 392 kts | 208° |
| 2026-05-05 23:46 | -42.04964 | 147.92984 | 20065 ft | 390 kts | 208° |
| 2026-05-05 23:46 | -42.07497 | 147.91720 | 19601 ft | 387 kts | 208° |
| 2026-05-05 23:46 | -42.10020 | 147.90462 | 19144 ft | 385 kts | 208° |
| 2026-05-05 23:46 | -42.12521 | 147.89215 | 18685 ft | 383 kts | 208° |
| 2026-05-05 23:47 | -42.15016 | 147.87968 | 18208 ft | 381 kts | 208° |
| 2026-05-05 23:47 | -42.16657 | 147.87143 | 17888 ft | 380 kts | 208° |
| 2026-05-05 23:47 | -42.19122 | 147.85903 | 17428 ft | 376 kts | 208° |
| 2026-05-05 23:47 | -42.21567 | 147.84677 | 16986 ft | 373 kts | 208° |
| 2026-05-05 23:48 | -42.23995 | 147.83463 | 16519 ft | 371 kts | 208° |
| 2026-05-05 23:48 | -42.26401 | 147.82260 | 16071 ft | 367 kts | 208° |
| 2026-05-05 23:48 | -42.28818 | 147.81048 | 15617 ft | 364 kts | 208° |
| 2026-05-05 23:48 | -42.31182 | 147.79858 | 15177 ft | 361 kts | 208° |
| 2026-05-05 23:49 | -42.33494 | 147.78695 | 14734 ft | 359 kts | 207° |
| 2026-05-05 23:49 | -42.35934 | 147.77865 | 14277 ft | 366 kts | 195° |
| 2026-05-05 23:49 | -42.38471 | 147.77507 | 13826 ft | 366 kts | 193° |
| 2026-05-05 23:49 | -42.41001 | 147.77184 | 13343 ft | 364 kts | 193° |
| 2026-05-05 23:50 | -42.43517 | 147.76869 | 12869 ft | 361 kts | 193° |
| 2026-05-05 23:50 | -42.46006 | 147.76558 | 12422 ft | 358 kts | 193° |
| 2026-05-05 23:50 | -42.48484 | 147.76246 | 11977 ft | 355 kts | 193° |
| 2026-05-05 23:50 | -42.50939 | 147.75932 | 11532 ft | 352 kts | 193° |
| 2026-05-05 23:51 | -42.53372 | 147.75617 | 11082 ft | 350 kts | 193° |
| 2026-05-05 23:51 | -42.55785 | 147.75303 | 10642 ft | 348 kts | 193° |
| 2026-05-05 23:51 | -42.58187 | 147.74989 | 10187 ft | 346 kts | 193° |
| 2026-05-05 23:51 | -42.60534 | 147.74687 | 10026 ft | 328 kts | 193° |
| 2026-05-05 23:52 | -42.62727 | 147.74418 | 9820 ft | 308 kts | 194° |
| 2026-05-05 23:52 | -42.64842 | 147.74148 | 9500 ft | 302 kts | 194° |
| 2026-05-05 23:52 | -42.66912 | 147.73873 | 8923 ft | 298 kts | 194° |
| 2026-05-05 23:52 | -42.68966 | 147.73596 | 8302 ft | 295 kts | 194° |
| 2026-05-05 23:53 | -42.70951 | 147.73335 | 8098 ft | 278 kts | 194° |
| 2026-05-05 23:53 | -42.72840 | 147.73095 | 7727 ft | 270 kts | 192° |
| 2026-05-05 23:53 | -42.74735 | 147.73219 | 7515 ft | 276 kts | 179° |
| 2026-05-05 23:53 | -42.76645 | 147.73816 | 7132 ft | 283 kts | 173° |
| 2026-05-05 23:54 | -42.78539 | 147.74489 | 6899 ft | 280 kts | 173° |
| 2026-05-05 23:54 | -42.80411 | 147.75170 | 6520 ft | 276 kts | 172° |
| 2026-05-05 23:54 | -42.82251 | 147.75839 | 5923 ft | 277 kts | 173° |
| 2026-05-05 23:54 | -42.84127 | 147.76507 | 5463 ft | 272 kts | 176° |
| 2026-05-05 23:55 | -42.85943 | 147.76692 | 4887 ft | 262 kts | 193° |
| 2026-05-05 23:55 | -42.87681 | 147.76174 | 4412 ft | 248 kts | 210° |
| 2026-05-05 23:55 | -42.89175 | 147.75220 | 4292 ft | 228 kts | 215° |
| 2026-05-05 23:55 | -42.90553 | 147.74294 | 4181 ft | 214 kts | 216° |
| 2026-05-05 23:56 | -42.91785 | 147.73319 | 4064 ft | 193 kts | 231° |
| 2026-05-05 23:56 | -42.92524 | 147.72011 | 3995 ft | 159 kts | 252° |
| 2026-05-05 23:56 | -42.92809 | 147.70685 | 3733 ft | 137 kts | 270° |
| 2026-05-05 23:56 | -42.92818 | 147.69390 | 3489 ft | 137 kts | 275° |
| 2026-05-05 23:57 | -42.92815 | 147.68086 | 3251 ft | 138 kts | 275° |
| 2026-05-05 23:57 | -42.92815 | 147.66778 | 3015 ft | 138 kts | 275° |
| 2026-05-05 23:57 | -42.92815 | 147.65474 | 2788 ft | 137 kts | 275° |
| 2026-05-05 23:57 | -42.92734 | 147.64195 | 2554 ft | 134 kts | 288° |
| 2026-05-05 23:58 | -42.92325 | 147.63060 | 2345 ft | 134 kts | 308° |
| 2026-05-05 23:58 | -42.91677 | 147.62137 | 2133 ft | 135 kts | 316° |
| 2026-05-05 23:58 | -42.91010 | 147.61233 | 1919 ft | 136 kts | 315° |
| 2026-05-05 23:58 | -42.90340 | 147.60327 | 1704 ft | 134 kts | 315° |
| 2026-05-05 23:59 | -42.89675 | 147.59430 | 1490 ft | 134 kts | 316° |
| 2026-05-05 23:59 | -42.89013 | 147.58535 | 1252 ft | 136 kts | 316° |
| 2026-05-05 23:59 | -42.88349 | 147.57618 | 1025 ft | 136 kts | 316° |
| 2026-05-05 23:59 | -42.87691 | 147.56715 | 878 ft | 134 kts | 316° |
| 2026-05-06 00:00 | -42.87032 | 147.55810 | 687 ft | 134 kts | 316° |
| 2026-05-06 00:00 | -42.86386 | 147.54935 | 564 ft | 134 kts | 317° |
| 2026-05-06 00:00 | -42.85719 | 147.54034 | 380 ft | 134 kts | 317° |
| 2026-05-06 00:00 | -42.85058 | 147.53134 | 207 ft | 133 kts | 316° |
| 2026-05-06 00:01 | -42.84408 | 147.52249 | 33 ft | 131 kts | 316° |
| 2026-05-06 00:01 | -42.83863 | 147.51514 | 22 ft | 86 kts | 315° |
| 2026-05-06 00:01 | -42.83549 | 147.51086 | 22 ft | 50 kts | 315° |
| 2026-05-06 00:01 | -42.83358 | 147.50833 | 22 ft | 30 kts | 314° |
| 2026-05-06 00:02 | -42.83326 | 147.50646 | 22 ft | 20 kts | 247° |
| 2026-05-06 00:02 | -42.83401 | 147.50552 | 22 ft | 13 kts | 195° |
| 2026-05-06 00:02 | -42.83476 | 147.50620 | 23 ft | 14 kts | 135° |
| 2026-05-06 00:02 | -42.83547 | 147.50705 | 24 ft | 10 kts | 156° |
| 2026-05-06 00:03 | -42.83601 | 147.50657 | 22 ft | 11 kts | 225° |
| 2026-05-06 00:03 | -42.83644 | 147.50598 | 22 ft | 8 kts | 224° |
| 2026-05-06 00:03 | -42.83655 | 147.50584 | 23 ft | 0 kts | 225° |